createdAt,value
2022-10-02T00:02:33.522Z,2.80
2022-10-02T00:06:30.441Z,5.60
2022-10-02T00:10:27.009Z,3.40
2022-10-02T00:14:21.260Z,3.60
2022-10-02T00:30:33.070Z,2.90
2022-10-02T00:34:26.680Z,2.60
2022-10-02T00:38:31.782Z,2.10
2022-10-02T00:42:23.035Z,3.10
2022-10-02T00:46:36.746Z,4.60
2022-10-02T00:50:47.514Z,3.00
2022-10-02T00:55:02.195Z,3.60
2022-10-02T00:59:21.890Z,4.20
2022-10-02T01:03:28.692Z,2.60
2022-10-02T01:07:21.846Z,2.80
2022-10-02T01:11:15.526Z,6.20
2022-10-02T01:15:13.510Z,3.30
2022-10-02T01:38:43.565Z,2.60
2022-10-02T01:42:37.757Z,4.20
2022-10-02T01:46:56.871Z,4.00
2022-10-02T01:50:59.206Z,3.20
2022-10-02T01:54:46.541Z,4.30
2022-10-02T01:58:53.975Z,2.40
2022-10-02T02:03:02.881Z,2.70
2022-10-02T02:07:08.466Z,2.20
2022-10-02T02:11:03.709Z,3.00
2022-10-02T02:14:56.716Z,2.80
2022-10-02T02:19:03.847Z,3.40
2022-10-02T02:23:03.135Z,3.00
2022-10-02T02:26:57.492Z,2.90
2022-10-02T02:57:58.624Z,1.50
2022-10-02T03:01:51.565Z,3.40
2022-10-02T03:25:46.092Z,2.30
2022-10-02T03:29:39.780Z,4.60
2022-10-02T03:33:33.596Z,2.70
2022-10-02T03:37:26.371Z,2.40
2022-10-02T03:53:34.273Z,2.60
2022-10-02T03:57:44.636Z,2.60
2022-10-02T04:01:35.038Z,3.80
2022-10-02T04:05:36.166Z,3.70
2022-10-02T04:09:29.187Z,2.30
2022-10-02T04:13:32.743Z,2.50
2022-10-02T04:17:33.789Z,3.30
2022-10-02T04:21:27.582Z,3.30
2022-10-02T04:25:21.661Z,2.30
2022-10-02T04:45:33.721Z,2.70
2022-10-02T04:49:37.741Z,4.90
2022-10-02T04:53:44.140Z,5.60
2022-10-02T04:57:45.555Z,4.10
2022-10-02T05:02:08.937Z,3.90
2022-10-02T05:06:01.666Z,3.60
2022-10-02T05:09:54.492Z,3.10
2022-10-02T05:14:13.439Z,3.30
2022-10-02T05:18:02.523Z,3.30
2022-10-02T05:21:59.461Z,3.40
2022-10-02T05:25:56.272Z,3.50
2022-10-02T05:29:47.492Z,4.60
2022-10-02T05:33:35.558Z,2.80
2022-10-02T05:37:30.948Z,5.10
2022-10-02T05:41:28.711Z,7.00
2022-10-02T05:45:21.511Z,3.30
2022-10-02T05:49:20.533Z,3.40
2022-10-02T05:53:17.206Z,3.50
2022-10-02T05:57:12.261Z,3.00
2022-10-02T06:01:21.389Z,2.60
2022-10-02T06:05:17.372Z,3.00
2022-10-02T06:09:20.075Z,3.00
2022-10-02T06:13:18.049Z,2.00
2022-10-02T06:17:14.001Z,2.90
2022-10-02T06:21:15.574Z,3.20
2022-10-02T06:25:08.536Z,1.40
2022-10-02T06:29:03.479Z,2.10
2022-10-02T06:32:56.607Z,6.10
2022-10-02T06:37:00.260Z,2.90
2022-10-02T06:40:55.500Z,2.20
2022-10-02T06:44:55.743Z,6.70
2022-10-02T06:48:59.121Z,3.60
2022-10-02T06:53:04.312Z,4.50
2022-10-02T06:57:05.013Z,4.50
2022-10-02T07:00:57.882Z,5.20
2022-10-02T07:05:05.514Z,4.60
2022-10-02T07:09:07.932Z,4.50
2022-10-02T07:13:15.752Z,3.00
2022-10-02T07:17:16.155Z,2.60
2022-10-02T07:21:25.235Z,2.20
2022-10-02T07:25:29.062Z,3.80
2022-10-02T07:29:39.057Z,2.70
2022-10-02T07:33:36.280Z,3.30
2022-10-02T07:41:23.587Z,3.20
2022-10-02T07:45:17.516Z,2.30
2022-10-02T07:49:10.358Z,3.10
2022-10-02T07:53:12.059Z,5.10
2022-10-02T07:57:05.090Z,2.50
2022-10-02T08:01:00.099Z,3.10
2022-10-02T08:05:08.883Z,7.10
2022-10-02T08:09:19.279Z,4.20
2022-10-02T08:13:07.158Z,4.70
2022-10-02T08:17:02.986Z,2.50
2022-10-02T08:20:57.004Z,4.30
2022-10-02T08:25:04.329Z,2.40
2022-10-02T08:29:14.882Z,3.40
2022-10-02T08:33:08.321Z,2.80
2022-10-02T08:40:51.561Z,2.30
2022-10-02T08:48:42.683Z,2.60
2022-10-02T08:52:29.193Z,4.10
2022-10-02T08:56:20.292Z,2.30
2022-10-02T09:00:23.847Z,2.10
2022-10-02T09:04:25.201Z,3.10
2022-10-02T09:08:20.789Z,2.80
2022-10-02T09:12:26.369Z,1.80
2022-10-02T09:16:17.707Z,2.80
2022-10-02T09:20:26.331Z,1.60
2022-10-02T09:24:38.914Z,1.40
2022-10-02T09:28:41.458Z,2.40
2022-10-02T09:32:40.107Z,2.20
2022-10-02T09:36:25.182Z,2.30
2022-10-02T09:40:47.229Z,2.30
2022-10-02T09:44:47.861Z,4.30
2022-10-02T09:48:41.088Z,1.40
2022-10-02T09:52:52.709Z,1.70
2022-10-02T09:56:51.594Z,2.90
2022-10-02T10:01:01.152Z,1.90
2022-10-02T10:05:08.285Z,0.80
2022-10-02T10:09:02.934Z,1.30
2022-10-02T10:12:54.631Z,1.50
2022-10-02T10:16:59.167Z,1.20
2022-10-02T10:20:58.330Z,1.60
2022-10-02T10:25:14.853Z,1.80
2022-10-02T10:29:25.712Z,1.70
2022-10-02T10:33:27.944Z,2.00
2022-10-02T10:37:26.789Z,1.10
2022-10-02T10:41:25.900Z,2.90
2022-10-02T10:45:21.451Z,2.00
2022-10-02T10:49:23.501Z,4.40
2022-10-02T10:53:39.915Z,1.70
2022-10-02T10:57:36.505Z,2.80
2022-10-02T11:01:45.016Z,3.50
2022-10-02T11:05:55.281Z,3.10
2022-10-02T11:09:45.573Z,3.80
2022-10-02T11:13:54.209Z,1.50
2022-10-02T11:17:44.978Z,2.30
2022-10-02T11:21:40.310Z,5.60
2022-10-02T11:25:38.207Z,2.00
2022-10-02T11:29:56.326Z,3.60
2022-10-02T11:33:55.698Z,2.50
2022-10-02T11:38:03.793Z,1.40
2022-10-02T11:42:32.450Z,11.20
2022-10-02T11:46:33.684Z,1.80
2022-10-02T11:50:30.589Z,2.10
2022-10-02T11:54:43.380Z,3.80
2022-10-02T11:58:52.124Z,2.10
2022-10-02T12:02:49.225Z,2.20
2022-10-02T12:06:48.717Z,11.40
2022-10-02T12:10:59.168Z,8.50
2022-10-02T12:14:52.289Z,7.80
2022-10-02T12:18:43.241Z,3.00
2022-10-02T12:22:36.953Z,1.80
2022-10-02T12:26:35.305Z,2.00
2022-10-02T12:30:48.059Z,1.00
2022-10-02T12:34:44.062Z,2.70
2022-10-02T12:38:28.398Z,2.70
2022-10-02T12:42:22.630Z,2.00
2022-10-02T12:46:13.655Z,1.90
2022-10-02T12:50:07.689Z,2.00
2022-10-02T12:54:05.653Z,2.60
2022-10-02T12:58:21.950Z,3.30
2022-10-02T13:02:59.139Z,3.10
2022-10-02T13:10:39.260Z,3.30
2022-10-02T13:14:37.237Z,3.30
2022-10-02T13:18:24.574Z,2.00
2022-10-02T13:22:31.671Z,2.40
2022-10-02T13:26:18.283Z,3.60
2022-10-02T13:30:18.256Z,4.00
2022-10-02T13:34:17.161Z,1.80
2022-10-02T13:38:10.154Z,2.10
2022-10-02T13:41:55.339Z,1.70
2022-10-02T13:46:05.007Z,3.30
2022-10-02T13:50:05.685Z,2.40
2022-10-02T13:53:48.891Z,2.80
2022-10-02T13:57:51.240Z,2.20
2022-10-02T14:01:52.641Z,3.80
2022-10-02T14:05:55.680Z,3.40
2022-10-02T14:10:09.152Z,3.60
2022-10-02T14:13:45.566Z,2.70
2022-10-02T14:17:49.900Z,1.40
2022-10-02T14:21:48.871Z,2.90
2022-10-02T14:26:04.191Z,2.20
2022-10-02T14:30:01.057Z,2.80
2022-10-02T14:33:38.658Z,3.50
2022-10-02T14:37:30.441Z,2.50
2022-10-02T14:41:30.410Z,3.80
2022-10-02T14:45:32.244Z,2.20
2022-10-02T14:49:29.824Z,2.50
2022-10-02T14:53:21.152Z,3.40
2022-10-02T14:57:28.118Z,1.50
2022-10-02T15:01:36.523Z,5.70
2022-10-02T15:05:37.253Z,3.80
2022-10-02T15:09:34.493Z,4.40
2022-10-02T15:13:31.951Z,4.70
2022-10-02T15:17:28.844Z,3.50
2022-10-02T15:21:35.716Z,5.10
2022-10-02T15:25:29.989Z,6.50
2022-10-02T15:32:51.851Z,5.50
2022-10-02T15:40:22.355Z,4.90
2022-10-02T15:44:19.667Z,3.60
2022-10-02T15:48:26.667Z,4.00
2022-10-02T15:55:53.877Z,3.50
2022-10-02T16:00:01.893Z,4.80
2022-10-02T16:03:43.162Z,4.90
2022-10-02T16:07:49.366Z,7.50
2022-10-02T16:11:43.922Z,5.90
2022-10-02T16:15:36.936Z,5.40
2022-10-02T16:19:28.078Z,8.00
2022-10-02T16:23:26.722Z,4.70
2022-10-02T16:27:38.943Z,7.30
2022-10-02T16:31:34.891Z,4.50
2022-10-02T16:35:27.404Z,6.00
2022-10-02T16:39:28.887Z,4.90
2022-10-02T16:43:23.739Z,4.60
2022-10-02T16:47:20.063Z,4.60
2022-10-02T16:51:30.618Z,4.00
2022-10-02T16:55:47.748Z,5.00
2022-10-02T16:59:47.811Z,7.60
2022-10-02T17:03:40.513Z,6.80
2022-10-02T17:07:25.522Z,5.80
2022-10-02T17:11:16.451Z,4.80
2022-10-02T17:15:06.036Z,4.50
2022-10-02T17:18:47.445Z,4.90
2022-10-02T17:22:42.311Z,6.80
2022-10-02T17:26:41.385Z,6.20
2022-10-02T17:30:36.191Z,4.20
2022-10-02T17:34:22.151Z,4.80
2022-10-02T17:38:26.592Z,5.20
2022-10-02T17:42:18.711Z,5.90
2022-10-02T17:46:27.736Z,3.40
2022-10-02T17:50:40.737Z,4.70
2022-10-02T17:54:34.143Z,5.20
2022-10-02T17:58:40.513Z,5.60
2022-10-02T18:02:36.163Z,5.40
2022-10-02T18:06:37.010Z,7.20
2022-10-02T18:10:39.631Z,4.10
2022-10-02T18:14:50.865Z,3.70
2022-10-02T18:19:11.092Z,3.50
2022-10-02T18:23:28.056Z,8.80
2022-10-02T18:27:22.075Z,4.60
2022-10-02T18:31:33.427Z,4.50
2022-10-02T18:36:05.589Z,6.20
2022-10-02T18:40:06.553Z,3.80
2022-10-02T18:44:00.838Z,4.30
2022-10-02T18:48:02.809Z,5.80
2022-10-02T18:52:00.302Z,5.70
2022-10-02T18:56:03.405Z,3.20
2022-10-02T19:00:07.749Z,6.00
2022-10-02T19:04:14.806Z,7.00
2022-10-02T19:08:00.131Z,13.60
2022-10-02T19:11:58.809Z,6.70
2022-10-02T19:15:54.202Z,6.50
2022-10-02T19:19:48.324Z,3.90
2022-10-02T19:23:40.537Z,6.60
2022-10-02T19:47:25.491Z,9.10
2022-10-02T19:51:18.115Z,8.60
2022-10-02T19:55:14.375Z,9.50
2022-10-02T19:59:14.548Z,11.30
2022-10-02T20:03:09.961Z,11.10
2022-10-02T20:07:02.690Z,4.10
2022-10-02T20:11:00.289Z,3.20
2022-10-02T20:14:52.931Z,4.90
2022-10-02T20:18:43.882Z,4.60
2022-10-02T21:09:27.709Z,3.80
2022-10-02T21:13:16.977Z,5.20
2022-10-02T21:17:17.284Z,6.10
2022-10-02T21:21:32.151Z,4.80
2022-10-02T21:25:38.815Z,5.60
2022-10-02T21:29:31.642Z,3.80
2022-10-02T21:33:23.994Z,3.00
2022-10-02T21:37:20.723Z,7.20
2022-10-02T21:41:19.883Z,8.40
2022-10-02T21:45:19.654Z,10.70
2022-10-02T21:49:12.717Z,7.60
2022-10-02T21:53:06.376Z,11.20
2022-10-02T21:57:12.403Z,10.00
2022-10-02T22:01:10.174Z,7.10
2022-10-02T22:05:14.373Z,8.00
2022-10-02T22:09:15.700Z,10.50
2022-10-02T22:13:09.262Z,8.60
2022-10-02T22:17:13.808Z,9.10
2022-10-02T22:21:09.233Z,10.00
2022-10-02T22:25:26.477Z,9.90
2022-10-02T22:29:27.940Z,11.50
2022-10-02T22:33:35.122Z,10.10
2022-10-02T22:37:37.475Z,11.00
2022-10-02T22:41:32.805Z,7.80
2022-10-02T22:45:32.928Z,9.80
2022-10-02T22:49:35.130Z,7.30
2022-10-02T22:53:46.669Z,13.70
2022-10-02T22:57:44.037Z,13.60
2022-10-02T23:01:36.399Z,11.20
2022-10-02T23:05:33.939Z,10.70
2022-10-02T23:09:26.625Z,9.40
2022-10-02T23:13:17.141Z,11.40
2022-10-02T23:17:17.369Z,9.70
2022-10-02T23:21:10.630Z,7.30
2022-10-02T23:25:03.585Z,7.20
2022-10-02T23:29:08.342Z,7.90
2022-10-02T23:33:03.818Z,8.30
2022-10-02T23:36:56.008Z,8.10
2022-10-02T23:40:58.306Z,7.40
2022-10-02T23:44:42.090Z,8.20
2022-10-02T23:48:40.491Z,8.30
2022-10-02T23:52:36.330Z,5.50
2022-10-02T23:57:02.249Z,9.20
